Time;durP1;ratioP1;P1;durP2;ratioP2;P2;SDS_P1;SDS_P2;PMS_P1;PMS_P2;Temp;Humidity;BMP_temperature;BMP_pressure;BME280_temperature;BME280_humidity;BME280_pressure;Samples;Min_cycle;Max_cycle;Signal;HPM_P1;HPM_P2
2023/08/16 00:02:20;;;;;;;8.50;4.20;;;;;;;-145.63;51.22;38734.81;5035890;28;20029;-65
2023/08/16 00:04:46;;;;;;;9.02;4.10;;;;;;;-145.63;51.31;38740.69;5039088;28;20050;-64
2023/08/16 00:07:12;;;;;;;5.80;4.07;;;;;;;-145.63;51.25;38756.34;5026201;28;20038;-64
2023/08/16 00:09:40;;;;;;;7.60;3.83;;;;;;;-145.63;51.64;38740.69;5044932;28;20036;-65
2023/08/16 00:12:07;;;;;;;4.28;3.88;;;;;;;-145.63;51.46;38594.03;5027716;28;20084;-64
2023/08/16 00:14:33;;;;;;;5.53;3.90;;;;;;;-145.63;51.39;38756.34;5037522;28;20032;-65
2023/08/16 00:16:58;;;;;;;5.25;3.95;;;;;;;-145.63;51.21;38742.66;5037239;28;20026;-65
2023/08/16 00:19:25;;;;;;;4.90;4.18;;;;;;;-145.63;51.47;38801.31;5027812;28;20298;-65
2023/08/16 00:21:51;;;;;;;6.00;4.25;;;;;;;-145.63;51.61;38734.81;5044645;28;20021;-64
2023/08/16 00:24:17;;;;;;;7.28;4.07;;;;;;;-145.63;51.85;38754.38;5026239;28;20030;-65
2023/08/16 00:26:43;;;;;;;5.63;3.83;;;;;;;-145.63;51.58;38758.28;5033007;28;20291;-65
2023/08/16 00:29:09;;;;;;;4.72;3.67;;;;;;;-145.63;51.70;38750.47;5036342;28;20025;-66
2023/08/16 00:31:34;;;;;;;5.28;4.05;;;;;;;-145.63;51.75;38791.53;5032189;28;20097;-64
2023/08/16 00:34:00;;;;;;;6.03;4.10;;;;;;;-145.63;51.88;38801.31;5036168;28;20030;-66
2023/08/16 00:36:26;;;;;;;4.50;3.67;;;;;;;-145.63;52.00;38795.44;5043673;28;20037;-65
2023/08/16 00:38:51;;;;;;;5.57;4.13;;;;;;;-145.63;51.97;38783.72;5024765;28;20033;-66
2023/08/16 00:41:19;;;;;;;7.18;4.18;;;;;;;-145.63;52.02;38793.50;5026334;28;20033;-65
2023/08/16 00:43:44;;;;;;;5.35;3.80;;;;;;;-145.63;51.83;38766.13;5029953;28;20097;-65
2023/08/16 00:46:11;;;;;;;5.20;3.33;;;;;;;-145.63;51.94;38770.03;5041487;28;20033;-64
2023/08/16 00:48:40;;;;;;;4.90;3.40;;;;;;;-145.63;51.64;38840.44;5044374;28;20036;-65
2023/08/16 00:51:06;;;;;;;6.30;3.55;;;;;;;-145.63;51.87;38797.41;5039632;28;20218;-65
2023/08/16 00:53:32;;;;;;;6.25;3.30;;;;;;;-145.63;52.06;38758.28;5036237;28;20367;-64
2023/08/16 00:55:58;;;;;;;6.63;3.55;;;;;;;-145.63;51.90;38799.34;5037024;28;20030;-64
2023/08/16 00:58:26;;;;;;;5.03;3.45;;;;;;;-145.63;52.06;38813.03;5025460;28;20033;-65
2023/08/16 01:00:51;;;;;;;7.18;3.60;;;;;;;-145.63;52.19;38801.31;5044059;28;20053;-65
2023/08/16 01:03:17;;;;;;;6.53;3.60;;;;;;;-145.63;52.18;38813.03;5025847;28;20046;-65
2023/08/16 01:05:43;;;;;;;6.68;3.83;;;;;;;-145.63;52.13;38822.81;5037390;28;20218;-65
2023/08/16 01:08:09;;;;;;;5.45;3.75;;;;;;;-145.63;52.00;38787.63;5034510;28;20345;-64
2023/08/16 01:11:04;;;;;;;6.63;3.88;;;;;;;-145.63;52.41;38799.34;5024280;28;20026;-66
2023/08/16 01:13:45;;;;;;;4.60;3.67;;;;;;;-145.63;52.58;38840.44;5023934;28;20029;-65
2023/08/16 01:16:11;;;;;;;6.82;3.85;;;;;;;-145.63;52.65;38858.03;5023532;28;20330;-65
2023/08/16 01:18:39;;;;;;;3.95;3.53;;;;;;;-145.63;52.69;38803.28;5023561;28;20032;-66
2023/08/16 01:21:07;;;;;;;4.45;3.75;;;;;;;-145.63;52.54;38797.41;5039782;28;20333;-65
2023/08/16 01:23:42;;;;;;;6.72;3.83;;;;;;;-145.63;52.75;38785.66;5031846;28;20121;-66
2023/08/16 01:26:34;;;;;;;5.43;4.03;;;;;;;-145.63;52.95;38820.88;5030528;28;20021;-65
2023/08/16 01:29:01;;;;;;;8.52;7.57;;;;;;;-145.63;52.97;38781.75;5036803;28;20049;-66
2023/08/16 01:31:27;;;;;;;8.18;6.32;;;;;;;-145.63;52.71;38838.47;5034031;28;20029;-66
2023/08/16 01:33:53;;;;;;;4.30;3.60;;;;;;;-145.63;52.68;38856.06;5023781;28;20254;-65
2023/08/16 01:36:19;;;;;;;6.05;4.80;;;;;;;-145.63;52.84;38844.34;5041522;28;20278;-65
2023/08/16 01:38:45;;;;;;;4.90;4.22;;;;;;;-145.63;52.89;38830.66;5037699;28;20310;-64
2023/08/16 01:41:38;;;;;;;7.75;3.88;;;;;;;-145.63;52.79;38840.44;5041930;28;20361;-65
2023/08/16 01:44:07;;;;;;;5.60;4.13;;;;;;;-145.63;53.17;38863.88;5035599;28;20061;-65
2023/08/16 01:46:33;;;;;;;6.18;5.00;;;;;;;-145.63;53.32;38854.13;5023361;28;20025;-65
2023/08/16 01:49:00;;;;;;;8.95;4.13;;;;;;;-145.63;53.19;38834.56;5023335;28;20030;-65
2023/08/16 01:51:26;;;;;;;7.43;4.13;;;;;;;-145.63;53.00;38846.28;5041939;28;20029;-64
2023/08/16 01:53:53;;;;;;;5.38;3.92;;;;;;;-145.63;53.05;38910.81;5029326;28;20071;-65
2023/08/16 01:56:20;;;;;;;5.05;4.25;;;;;;;-145.63;53.18;38877.56;5031596;28;20219;-64
2023/08/16 01:58:46;;;;;;;4.28;3.83;;;;;;;-145.63;53.43;38869.75;5043127;28;20080;-64
2023/08/16 02:01:13;;;;;;;6.25;4.65;;;;;;;-145.63;53.48;38846.28;5030001;28;20108;-65
2023/08/16 02:03:39;;;;;;;6.97;3.92;;;;;;;-145.63;53.63;38856.06;5038930;28;20045;-66
2023/08/16 02:06:04;;;;;;;5.32;3.53;;;;;;;-145.63;53.34;38873.66;5034446;28;20075;-64
2023/08/16 02:08:30;;;;;;;6.45;4.03;;;;;;;-145.63;53.48;38879.53;5025961;28;20093;-65
2023/08/16 02:10:56;;;;;;;6.93;5.00;;;;;;;-145.63;53.48;38859.97;5027292;28;20049;-65
2023/08/16 02:13:22;;;;;;;5.82;4.07;;;;;;;-145.63;53.64;38836.50;5030721;28;20037;-65
2023/08/16 02:15:47;;;;;;;10.32;4.53;;;;;;;-145.63;53.21;38869.75;5043039;28;20277;-65
2023/08/16 02:18:13;;;;;;;8.23;4.30;;;;;;;-145.63;53.50;38854.13;5042692;28;20026;-65
2023/08/16 02:20:41;;;;;;;5.13;4.45;;;;;;;-145.63;53.32;38867.81;5028025;28;20222;-65
2023/08/16 02:23:08;;;;;;;6.43;3.80;;;;;;;-145.63;53.46;38856.06;5040702;28;20036;-66
2023/08/16 02:25:34;;;;;;;5.95;3.85;;;;;;;-145.63;53.37;38881.50;5037868;28;20029;-64
2023/08/16 02:27:59;;;;;;;5.20;4.70;;;;;;;-145.63;53.15;38877.56;5031535;28;20053;-65
2023/08/16 02:30:26;;;;;;;6.00;5.13;;;;;;;-145.63;53.34;38895.19;5035084;28;20037;-65
2023/08/16 02:32:54;;;;;;;7.18;5.05;;;;;;;-145.63;53.54;38899.09;5027087;28;20036;-65
2023/08/16 02:35:19;;;;;;;5.95;4.40;;;;;;;-145.63;53.86;38889.31;5033389;28;20025;-66
2023/08/16 02:37:45;;;;;;;5.55;4.35;;;;;;;-145.63;53.98;38903.00;5038313;28;20079;-66
2023/08/16 02:40:11;;;;;;;6.10;4.30;;;;;;;-145.63;53.56;38842.38;5039793;28;20033;-65
2023/08/16 02:42:37;;;;;;;4.97;4.47;;;;;;;-145.63;53.56;38881.50;5027572;28;20022;-64
2023/08/16 02:45:03;;;;;;;8.43;5.63;;;;;;;-145.63;53.64;38840.44;5043233;28;20048;-65
2023/08/16 02:47:30;;;;;;;7.95;5.25;;;;;;;-145.63;53.92;38867.81;5030276;28;20025;-65
2023/08/16 02:49:56;;;;;;;7.80;5.13;;;;;;;-145.63;53.67;38861.94;5038451;28;20036;-65
2023/08/16 02:52:22;;;;;;;4.75;4.20;;;;;;;-145.63;53.77;38859.97;5039185;28;20021;-65
2023/08/16 02:54:47;;;;;;;6.68;4.57;;;;;;;-145.63;53.77;38850.19;5027792;28;20034;-64
2023/08/16 02:57:18;;;;;;;8.30;4.82;;;;;;;-145.63;53.90;38834.56;5046473;28;20021;-64
2023/08/16 02:59:47;;;;;;;5.53;4.50;;;;;;;-145.63;53.32;38895.19;5028098;28;20033;-65
2023/08/16 03:02:14;;;;;;;9.50;5.00;;;;;;;-145.63;53.46;38852.16;5040285;28;20021;-65
2023/08/16 03:04:39;;;;;;;6.43;4.30;;;;;;;-145.63;52.91;38834.56;5035419;28;20083;-66
2023/08/16 03:07:10;;;;;;;5.75;4.82;;;;;;;-145.63;52.94;38461.06;5034820;28;20038;-65
2023/08/16 03:09:36;;;;;;;8.07;4.97;;;;;;;-145.63;52.92;38791.53;5029204;28;20025;-64
2023/08/16 03:12:03;;;;;;;6.47;4.10;;;;;;;-145.63;52.72;38848.25;5030243;28;20064;-64
2023/08/16 03:14:28;;;;;;;7.85;4.55;;;;;;;-145.63;52.69;38793.50;5025898;28;20026;-64
2023/08/16 03:16:55;;;;;;;5.10;4.13;;;;;;;-145.63;52.52;38811.09;5037495;28;20147;-66
2023/08/16 03:19:21;;;;;;;8.10;4.80;;;;;;;-145.63;52.63;38789.59;5039188;28;20334;-64
2023/08/16 03:21:46;;;;;;;7.53;5.03;;;;;;;-145.63;52.56;38822.81;5028097;28;20037;-64
2023/08/16 03:24:12;;;;;;;6.82;4.03;;;;;;;-145.63;52.38;38777.84;5045897;28;20021;-65
2023/08/16 03:26:38;;;;;;;7.22;4.00;;;;;;;-145.63;52.57;38832.59;5028276;28;20037;-65
2023/08/16 03:29:05;;;;;;;5.85;4.10;;;;;;;-145.63;52.56;38807.19;5025193;28;20083;-66
2023/08/16 03:31:30;;;;;;;6.78;4.80;;;;;;;-145.63;52.71;38803.28;5039216;28;20029;-64
2023/08/16 03:33:56;;;;;;;4.40;3.85;;;;;;;-145.63;52.50;38773.94;5034616;28;20025;-64
2023/08/16 03:36:22;;;;;;;5.93;4.28;;;;;;;-145.63;52.38;38789.59;5040933;28;20035;-65
2023/08/16 03:38:47;;;;;;;5.25;3.70;;;;;;;-145.63;52.42;38785.66;5034738;28;20072;-64
2023/08/16 03:41:13;;;;;;;6.82;3.85;;;;;;;-145.63;52.29;38781.75;5034728;28;20033;-65
2023/08/16 03:43:39;;;;;;;7.00;3.53;;;;;;;-145.63;52.11;38728.97;5025594;28;20034;-64
2023/08/16 03:46:05;;;;;;;5.30;3.95;;;;;;;-145.63;51.96;38777.84;5029792;28;20029;-65
2023/08/16 03:48:30;;;;;;;10.05;4.55;;;;;;;-145.63;51.25;38754.38;5045566;28;20395;-65
2023/08/16 03:50:56;;;;;;;7.07;4.47;;;;;;;-145.63;51.25;38740.69;5025749;28;20057;-65
2023/08/16 03:53:22;;;;;;;5.22;4.45;;;;;;;-145.63;51.31;38754.38;5040196;28;20026;-65
2023/08/16 03:55:47;;;;;;;8.35;4.25;;;;;;;-145.63;51.68;38764.16;5035062;28;20026;-64
2023/08/16 03:58:13;;;;;;;8.75;4.00;;;;;;;-145.63;51.61;38734.81;5030476;28;20029;-65
2023/08/16 04:00:40;;;;;;;7.50;4.25;;;;;;;-145.63;51.66;38740.69;5044481;28;20029;-65
2023/08/16 04:03:06;;;;;;;6.63;4.30;;;;;;;-145.63;51.02;38770.03;5036933;28;20032;-65
2023/08/16 04:05:33;;;;;;;6.95;4.10;;;;;;;-145.63;50.55;38699.63;5044862;28;20065;-65
2023/08/16 04:07:59;;;;;;;6.57;3.83;;;;;;;-145.63;50.78;38699.63;5033798;28;20029;-64
2023/08/16 04:10:24;;;;;;;8.40;4.47;;;;;;;-145.63;50.13;38736.78;5024823;28;20107;-66
2023/08/16 04:12:50;;;;;;;5.97;3.95;;;;;;;-145.63;50.43;38756.34;5027033;28;20030;-65
2023/08/16 04:15:16;;;;;;;7.30;4.13;;;;;;;-145.63;50.89;38723.09;5044912;28;20021;-64
2023/08/16 04:17:42;;;;;;;6.50;3.67;;;;;;;-145.63;50.43;38691.81;5027626;28;20030;-65
2023/08/16 04:20:08;;;;;;;5.20;3.90;;;;;;;-145.63;50.95;38684.00;5037300;28;20092;-66
2023/08/16 04:22:34;;;;;;;7.97;3.88;;;;;;;-145.63;50.86;38701.59;5037094;28;20321;-66
2023/08/16 04:25:01;;;;;;;25.05;17.65;;;;;;;-145.63;50.14;38670.28;5033963;28;20026;-66
2023/08/16 04:27:28;;;;;;;14.98;6.38;;;;;;;-145.63;49.90;38674.22;5024795;28;20034;-66
2023/08/16 04:29:53;;;;;;;7.57;4.47;;;;;;;-145.63;49.65;38674.22;5033983;28;20392;-66
2023/08/16 04:32:19;;;;;;;5.32;3.83;;;;;;;-145.63;49.70;38650.75;5025836;28;20033;-65
2023/08/16 04:34:45;;;;;;;8.20;4.00;;;;;;;-145.63;49.80;38676.16;5025645;28;20068;-66
2023/08/16 04:37:10;;;;;;;5.68;3.72;;;;;;;-145.63;50.26;38672.25;5027504;28;20021;-65
2023/08/16 04:39:36;;;;;;;6.65;4.05;;;;;;;-145.63;49.76;38660.53;5024803;28;20053;-66
2023/08/16 04:42:02;;;;;;;6.47;4.00;;;;;;;-145.63;49.63;38648.78;5030171;28;20071;-65
2023/08/16 04:44:27;;;;;;;5.20;3.58;;;;;;;-145.63;49.29;38627.28;5023706;28;20329;-65
2023/08/16 04:46:53;;;;;;;4.63;3.38;;;;;;;-145.63;48.90;38596.00;5034872;28;20037;-65
2023/08/16 04:49:19;;;;;;;6.40;3.42;;;;;;;-145.63;48.85;38648.78;5038776;28;20425;-66
2023/08/16 04:51:45;;;;;;;5.65;3.70;;;;;;;-145.63;48.93;38617.50;5025322;28;20097;-65
2023/08/16 04:54:10;;;;;;;6.32;3.95;;;;;;;-145.63;48.86;38605.78;5029959;28;20030;-65
2023/08/16 04:56:36;;;;;;;6.85;4.13;;;;;;;-145.63;48.73;38586.22;5040305;28;20048;-65
2023/08/16 04:59:01;;;;;;;4.28;3.35;;;;;;;-145.63;48.94;38601.84;5032703;28;20207;-66
2023/08/16 05:01:27;;;;;;;6.03;3.42;;;;;;;-145.63;49.00;38588.16;5029947;28;20033;-66
2023/08/16 05:03:58;;;;;;;4.00;3.30;;;;;;;-145.63;48.46;38541.25;5133085;27;1455579;-65
2023/08/16 05:06:23;;;;;;;7.90;3.90;;;;;;;-145.63;48.30;38517.78;5162162;27;20039;-66
2023/08/16 05:08:49;;;;;;;7.07;3.58;;;;;;;-145.63;47.91;38418.06;5162359;27;20203;-65
2023/08/16 05:11:15;;;;;;;4.78;3.70;;;;;;;-145.63;47.41;38418.06;5162067;27;20057;-65
2023/08/16 05:13:40;;;;;;;5.20;3.65;;;;;;;-145.63;47.53;38375.03;5161948;27;20023;-65
2023/08/16 05:16:06;;;;;;;3.85;3.40;;;;;;;-145.63;47.42;38367.22;5161846;27;20368;-65
2023/08/16 05:18:32;;;;;;;6.75;3.95;;;;;;;-145.63;46.87;38355.50;5162231;27;20030;-67
2023/08/16 05:21:02;;;;;;;4.50;3.08;;;;;;;-145.63;46.36;38341.81;5162044;27;20048;-65
2023/08/16 05:23:29;;;;;;;6.82;4.05;;;;;;;-145.63;46.73;38357.44;5162182;27;20023;-65
2023/08/16 05:25:54;;;;;;;5.53;3.17;;;;;;;-145.63;46.21;38349.63;5161906;27;20097;-66
2023/08/16 05:28:22;;;;;;;5.80;3.15;;;;;;;-145.63;46.33;38351.56;5150314;27;20038;-65
2023/08/16 05:30:48;;;;;;;6.18;3.17;;;;;;;-145.63;46.45;38345.72;5141963;27;20065;-65
2023/08/16 05:33:14;;;;;;;6.03;3.72;;;;;;;-145.63;46.52;38361.34;5136622;28;20023;-65
2023/08/16 05:35:39;;;;;;;7.00;3.50;;;;;;;-145.63;46.35;38341.81;5157916;27;20046;-66
2023/08/16 05:38:05;;;;;;;4.50;3.22;;;;;;;-145.63;46.42;38304.66;5132944;28;20034;-65
2023/08/16 05:40:31;;;;;;;7.32;3.70;;;;;;;-145.63;46.09;38330.06;5138851;28;20035;-65
2023/08/16 05:42:57;;;;;;;4.22;3.15;;;;;;;-145.63;46.20;38343.75;5123946;27;20024;-66
2023/08/16 05:45:26;;;;;;;7.28;3.40;;;;;;;-145.63;46.30;38296.81;5140710;28;20297;-66
2023/08/16 05:47:53;;;;;;;4.63;3.50;;;;;;;-145.63;46.13;38347.66;5140930;27;20235;-65
2023/08/16 05:50:19;;;;;;;5.65;3.17;;;;;;;-145.63;45.89;38302.69;5147445;27;20027;-64
2023/08/16 05:52:45;;;;;;;7.25;3.38;;;;;;;-145.63;45.66;38257.72;5149893;27;20075;-65
2023/08/16 05:55:10;;;;;;;9.50;4.13;;;;;;;-145.63;45.03;38285.09;5157442;27;20023;-65
2023/08/16 05:57:36;;;;;;;9.77;3.58;;;;;;;-145.63;45.31;38234.25;5139574;28;20098;-66
2023/08/16 06:00:02;;;;;;;6.85;3.50;;;;;;;-145.63;43.97;38060.25;5157978;27;20029;-66
2023/08/16 06:02:30;;;;;;;5.78;3.60;;;;;;;-145.63;45.01;38208.84;5139531;27;20043;-66
2023/08/16 06:04:58;;;;;;;5.65;3.53;;;;;;;-145.63;44.18;38285.09;5140063;27;20039;-65
2023/08/16 06:07:25;;;;;;;5.18;3.30;;;;;;;-145.63;44.58;38216.66;5139968;27;20304;-66
2023/08/16 06:09:51;;;;;;;5.85;3.13;;;;;;;-145.63;44.65;38201.03;5138924;28;20023;-66
2023/08/16 06:12:17;;;;;;;8.15;3.25;;;;;;;-145.63;43.91;38179.50;5138345;28;20031;-66
2023/08/16 06:14:43;;;;;;;4.88;2.95;;;;;;;-145.63;44.09;38175.59;5127251;28;21168;-65
2023/08/16 06:17:09;;;;;;;6.95;3.03;;;;;;;-145.63;43.85;38154.09;5120591;28;20024;-66
2023/08/16 06:19:34;;;;;;;5.38;3.30;;;;;;;-145.63;42.88;38156.06;5123519;28;20189;-66
2023/08/16 06:22:00;;;;;;;4.32;3.13;;;;;;;-145.63;42.94;38144.31;5125946;28;20035;-67
2023/08/16 06:24:26;;;;;;;5.50;3.00;;;;;;;-145.63;42.35;38148.22;5126047;28;20035;-66
2023/08/16 06:26:51;;;;;;;4.82;2.63;;;;;;;-145.63;42.73;38152.16;5125953;27;20035;-65
2023/08/16 06:29:17;;;;;;;5.32;3.10;;;;;;;-145.63;41.81;38132.59;5121275;28;20054;-65
2023/08/16 06:31:42;;;;;;;5.18;2.95;;;;;;;-145.63;42.05;38105.22;5122821;27;20032;-66
2023/08/16 06:34:08;;;;;;;5.47;3.20;;;;;;;-145.63;42.49;38054.38;5129629;27;20022;-65
2023/08/16 06:36:34;;;;;;;4.70;2.90;;;;;;;-145.63;41.63;38083.72;5130454;27;20208;-65
2023/08/16 06:38:59;;;;;;;3.95;2.92;;;;;;;-145.63;42.26;38089.56;5125584;28;20027;-65
2023/08/16 06:41:25;;;;;;;8.35;3.15;;;;;;;-145.63;41.88;38001.59;5121657;27;20062;-66
2023/08/16 06:43:51;;;;;;;5.13;2.67;;;;;;;-145.63;41.61;38034.84;5135543;27;20118;-65
2023/08/16 06:46:17;;;;;;;5.97;3.40;;;;;;;-145.63;40.64;38011.38;5143471;27;20027;-66
2023/08/16 06:48:42;;;;;;;3.90;2.83;;;;;;;-145.63;41.03;38028.97;5138478;27;20219;-65
2023/08/16 06:51:08;;;;;;;4.45;3.08;;;;;;;-145.63;39.90;38050.47;5129143;27;20076;-66
2023/08/16 06:53:33;;;;;;;5.22;2.97;;;;;;;-145.63;40.75;37985.97;5136715;27;20023;-65
2023/08/16 06:55:59;;;;;;;3.90;2.50;;;;;;;-145.63;39.47;38028.97;5107994;28;20043;-65
2023/08/16 06:58:25;;;;;;;4.57;3.33;;;;;;;-145.63;40.76;38017.25;5126043;27;20046;-66
2023/08/16 07:00:54;;;;;;;6.60;2.83;;;;;;;-145.63;40.41;38017.25;5125770;28;20336;-65
2023/08/16 07:03:19;;;;;;;5.85;2.63;;;;;;;-145.63;40.21;37984.00;5129102;27;20307;-66
2023/08/16 07:05:45;;;;;;;5.00;2.55;;;;;;;-145.63;38.84;37956.63;5141796;27;20127;-66
2023/08/16 07:08:11;;;;;;;4.55;2.40;;;;;;;-145.63;38.85;37937.09;5133234;27;20030;-66
2023/08/16 07:10:37;;;;;;;3.63;2.20;;;;;;;-145.63;36.47;37866.69;5126082;27;20088;-66
2023/08/16 07:13:03;;;;;;;3.47;2.22;;;;;;;-145.63;37.27;37944.91;5127585;27;20312;-66
2023/08/16 07:15:29;;;;;;;3.25;2.53;;;;;;;-145.63;36.95;37876.47;5127171;27;20025;-66
2023/08/16 07:17:55;;;;;;;2.92;2.17;;;;;;;-145.63;37.01;37890.16;5111943;28;20076;-66
2023/08/16 07:20:21;;;;;;;4.13;2.20;;;;;;;-145.63;37.07;37626.25;5097505;27;20019;-66
2023/08/16 07:22:47;;;;;;;3.50;2.28;;;;;;;-145.63;36.97;37825.66;5106472;28;20023;-65
2023/08/16 07:25:13;;;;;;;3.40;2.15;;;;;;;-145.63;36.58;37811.97;5123411;27;20035;-65
2023/08/16 07:27:39;;;;;;;4.93;2.30;;;;;;;-145.63;37.95;37858.88;5124585;28;20366;-65
2023/08/16 07:30:05;;;;;;;3.35;2.28;;;;;;;-145.63;36.91;37823.69;5120724;28;20028;-64
2023/08/16 07:32:33;;;;;;;3.72;2.42;;;;;;;-145.63;37.66;37823.69;5124320;27;20031;-65
2023/08/16 07:34:58;;;;;;;2.33;2.00;;;;;;;-145.63;36.20;37761.13;5127440;27;20023;-65
2023/08/16 07:37:31;;;;;;;4.18;2.60;;;;;;;-145.63;35.42;37782.63;5129658;27;20047;-65
2023/08/16 07:39:58;;;;;;;4.07;2.15;;;;;;;-145.63;34.40;37829.56;5134368;27;20085;-65
2023/08/16 07:42:24;;;;;;;5.35;2.40;;;;;;;-145.63;35.85;37792.41;5124014;28;20565;-65
2023/08/16 07:44:50;;;;;;;4.50;2.33;;;;;;;-145.63;35.83;37819.78;5106074;28;20032;-65
2023/08/16 07:47:15;;;;;;;3.55;2.50;;;;;;;-145.63;36.40;37790.44;5124061;27;20084;-65
2023/08/16 07:49:41;;;;;;;4.07;2.53;;;;;;;-145.63;35.20;37747.44;5131821;27;20041;-65
2023/08/16 07:52:07;;;;;;;3.80;2.60;;;;;;;-145.63;35.90;37788.50;5127187;27;20100;-66
2023/08/16 07:54:33;;;;;;;3.00;2.20;;;;;;;-145.63;36.59;37792.41;5124619;28;20030;-65
2023/08/16 07:56:59;;;;;;;3.58;2.40;;;;;;;-145.63;34.55;37735.72;5117503;28;20055;-66
2023/08/16 07:59:24;;;;;;;4.95;2.50;;;;;;;-145.63;35.75;37815.88;5134722;27;20031;-66
2023/08/16 08:01:51;;;;;;;3.30;2.22;;;;;;;-145.63;34.42;37778.72;5128994;27;20031;-65
2023/08/16 08:04:18;;;;;;;4.88;2.20;;;;;;;-145.63;34.88;37763.09;5128898;27;20098;-64
2023/08/16 08:06:44;;;;;;;4.28;1.80;;;;;;;-145.63;34.75;37786.53;5126678;27;20090;-65
2023/08/16 08:09:10;;;;;;;3.75;2.05;;;;;;;-145.63;34.66;37684.88;5138327;27;20045;-65
2023/08/16 08:11:39;;;;;;;2.45;1.90;;;;;;;-145.63;34.82;37673.16;5124555;27;20020;-65
2023/08/16 08:14:05;;;;;;;3.40;2.22;;;;;;;-145.63;34.84;37745.50;5133846;27;20107;-66
2023/08/16 08:16:31;;;;;;;3.17;2.33;;;;;;;-145.63;35.21;37706.38;5129275;27;20110;-65
2023/08/16 08:18:57;;;;;;;2.30;2.10;;;;;;;-145.63;34.84;37696.63;5124576;27;20038;-66
2023/08/16 08:21:22;;;;;;;3.08;2.17;;;;;;;-145.63;33.45;37727.91;5123654;28;20023;-66
2023/08/16 08:23:48;;;;;;;4.78;2.03;;;;;;;-145.63;34.08;37688.78;5120906;28;20181;-66
2023/08/16 08:26:15;;;;;;;3.22;2.30;;;;;;;-145.63;34.24;37690.75;5122954;28;20211;-67
2023/08/16 08:28:42;;;;;;;3.83;1.80;;;;;;;-145.63;31.70;37696.63;5123474;28;20088;-65
2023/08/16 08:31:07;;;;;;;1.98;1.73;;;;;;;-145.63;33.43;37679.03;5125136;27;20023;-65
2023/08/16 08:33:33;;;;;;;2.45;1.95;;;;;;;-145.63;33.21;37655.56;5126755;27;20204;-66
2023/08/16 08:35:59;;;;;;;4.18;2.05;;;;;;;-145.63;33.59;37538.25;5135692;27;20030;-65
2023/08/16 08:38:25;;;;;;;3.83;2.10;;;;;;;-145.63;32.54;37338.88;5120812;28;20038;-65
2023/08/16 08:41:00;;;;;;;3.33;1.75;;;;;;;-145.63;32.45;37747.44;5123351;28;20036;-66
2023/08/16 08:43:45;;;;;;;3.25;1.90;;;;;;;-145.63;31.59;37585.19;5125571;27;20086;-65
2023/08/16 08:46:11;;;;;;;3.45;2.00;;;;;;;-145.63;32.46;37643.84;5125046;27;20019;-65
2023/08/16 08:48:38;;;;;;;4.40;2.08;;;;;;;-145.63;32.98;37604.72;5105161;28;20196;-65
2023/08/16 08:51:04;;;;;;;2.83;1.90;;;;;;;-145.63;31.85;37647.75;5123619;28;20079;-65
2023/08/16 08:53:29;;;;;;;3.40;1.92;;;;;;;-145.63;32.71;37589.09;5129740;27;20035;-65
2023/08/16 08:56:01;;;;;;;4.65;2.10;;;;;;;-145.63;32.64;37548.03;5125875;28;20209;-67
2023/08/16 08:58:29;;;;;;;3.45;1.90;;;;;;;-145.63;32.18;37508.94;5128012;27;20059;-66
2023/08/16 09:00:56;;;;;;;4.43;2.20;;;;;;;-145.63;32.80;37426.84;5115358;28;20080;-66
2023/08/16 09:03:23;;;;;;;2.80;2.05;;;;;;;-145.63;31.70;37409.25;5129046;28;20078;-67
2023/08/16 09:05:52;;;;;;;5.13;2.20;;;;;;;-145.63;31.29;37442.47;5139758;28;20027;-66
2023/08/16 09:08:20;;;;;;;2.78;2.30;;;;;;;-145.63;30.12;37389.69;5113638;28;20208;-65
2023/08/16 09:10:46;;;;;;;4.28;2.50;;;;;;;-145.63;29.97;37362.34;5123056;28;20099;-66
2023/08/16 09:13:13;;;;;;;4.35;2.22;;;;;;;-145.63;30.65;37250.91;5123400;28;20026;-66
2023/08/16 09:15:39;;;;;;;3.95;2.30;;;;;;;-145.63;30.18;37248.97;5123331;28;20332;-65
2023/08/16 09:18:21;;;;;;;2.33;2.10;;;;;;;-145.63;30.47;37376.00;5141688;28;20027;-66
2023/08/16 09:20:46;;;;;;;4.43;2.08;;;;;;;-145.63;30.42;37260.69;5128030;28;20023;-66
2023/08/16 09:23:17;;;;;;;3.60;2.08;;;;;;;-145.63;30.42;37243.09;5133024;28;20027;-64
2023/08/16 09:25:47;;;;;;;4.43;2.28;;;;;;;-145.63;31.14;37205.94;5130366;28;20073;-66
2023/08/16 09:28:14;;;;;;;2.05;1.90;;;;;;;-145.63;29.82;37250.91;5132529;28;20072;-66
2023/08/16 09:30:43;;;;;;;3.65;2.45;;;;;;;-145.63;29.91;37219.63;5131357;28;20024;-66
2023/08/16 09:33:13;;;;;;;2.63;1.90;;;;;;;-145.63;29.01;37200.09;5134684;28;20103;-66
2023/08/16 09:35:49;;;;;;;3.00;2.08;;;;;;;-145.63;29.82;37178.59;5125695;28;20024;-65
2023/08/16 09:38:15;;;;;;;2.53;1.60;;;;;;;-145.63;30.61;37241.13;5134189;28;20055;-67
2023/08/16 09:40:49;;;;;;;3.03;2.20;;;;;;;-145.63;30.93;37346.69;5136993;28;20027;-67
2023/08/16 09:43:16;;;;;;;2.35;2.10;;;;;;;-145.63;30.10;37331.06;5123084;28;20035;-66
2023/08/16 09:45:43;;;;;;;4.38;2.10;;;;;;;-145.63;30.52;37368.19;5136417;28;20072;-65
2023/08/16 09:48:09;;;;;;;3.92;2.40;;;;;;;-145.63;30.82;37426.84;5108495;28;20197;-66
2023/08/16 09:50:35;;;;;;;3.53;2.20;;;;;;;-145.63;31.88;37409.25;5139471;27;20050;-66
2023/08/16 09:53:04;;;;;;;2.90;2.25;;;;;;;-145.63;30.80;37409.25;5135095;27;20099;-66
2023/08/16 09:55:33;;;;;;;4.20;2.60;;;;;;;-145.63;31.81;37458.13;5142877;27;20334;-66
2023/08/16 09:58:00;;;;;;;4.90;2.30;;;;;;;-145.63;31.59;37530.44;5127398;28;20020;-66
2023/08/16 10:00:28;;;;;;;4.00;2.60;;;;;;;-145.63;30.71;37463.97;5146763;27;20114;-66
2023/08/16 10:02:56;;;;;;;8.40;2.80;;;;;;;-145.63;31.97;37467.91;5132018;27;20162;-66
2023/08/16 10:05:21;;;;;;;2.65;2.38;;;;;;;-145.63;30.76;37452.25;5126722;28;20114;-66
2023/08/16 10:07:48;;;;;;;5.20;2.70;;;;;;;-145.63;31.59;37499.16;5133697;27;20234;-66
2023/08/16 10:10:15;;;;;;;5.53;2.30;;;;;;;-145.63;31.53;37495.25;5137051;27;20291;-66
2023/08/16 10:12:41;;;;;;;3.05;2.55;;;;;;;-145.63;31.89;37489.41;5126123;28;20035;-66
2023/08/16 10:15:08;;;;;;;3.58;1.95;;;;;;;-145.63;32.79;37463.97;5126272;28;20012;-66
2023/08/16 10:17:37;;;;;;;4.38;2.80;;;;;;;-145.63;32.55;37399.47;5126379;28;20038;-67
2023/08/16 10:20:04;;;;;;;4.07;2.40;;;;;;;-145.63;31.87;37422.94;5125023;28;20031;-66
2023/08/16 10:22:39;;;;;;;3.00;2.33;;;;;;;-145.63;31.84;37475.72;5130741;27;20090;-67
2023/08/16 10:25:12;;;;;;;3.65;2.20;;;;;;;-145.63;32.21;37381.88;5145985;27;20073;-67
2023/08/16 10:27:43;;;;;;;3.65;2.63;;;;;;;-145.63;32.32;37420.97;5126457;28;20068;-67
2023/08/16 10:30:16;;;;;;;4.90;2.45;;;;;;;-145.63;32.63;37354.50;5144509;27;20027;-66
2023/08/16 10:32:43;;;;;;;6.97;2.60;;;;;;;-145.63;31.28;37327.16;5127268;27;20020;-66
2023/08/16 10:35:10;;;;;;;3.80;2.58;;;;;;;-145.63;30.48;37422.94;5126143;28;20024;-66
2023/08/16 10:37:37;;;;;;;6.57;2.70;;;;;;;-145.63;31.80;37368.19;5113240;27;20031;-66
2023/08/16 10:40:03;;;;;;;3.88;2.20;;;;;;;-145.63;31.44;37399.47;5118219;27;20034;-66
2023/08/16 10:42:29;;;;;;;5.20;2.50;;;;;;;-145.63;32.42;37420.97;5125825;28;20142;-66
2023/08/16 10:44:55;;;;;;;5.38;2.47;;;;;;;-145.63;31.12;37397.53;5125754;28;20077;-66
2023/08/16 10:47:31;;;;;;;5.03;2.50;;;;;;;-145.63;32.13;37419.03;5137173;27;20031;-65
2023/08/16 10:49:59;;;;;;;4.70;2.50;;;;;;;-145.63;31.10;37387.75;5138269;27;20034;-66
2023/08/16 10:52:32;;;;;;;2.45;2.25;;;;;;;-145.63;31.91;37467.91;5127832;27;20035;-65
2023/08/16 10:55:01;;;;;;;4.10;2.40;;;;;;;-145.63;31.72;37463.97;5110424;28;20054;-65
2023/08/16 10:57:28;;;;;;;5.80;2.50;;;;;;;-145.63;31.86;37397.53;5105563;28;20028;-64
2023/08/16 11:00:09;;;;;;;4.03;2.60;;;;;;;-145.63;32.08;37413.16;5125367;27;20039;-65
2023/08/16 11:02:36;;;;;;;4.15;2.38;;;;;;;-145.63;31.65;37358.44;5130154;27;20086;-65
2023/08/16 11:05:02;;;;;;;2.97;2.38;;;;;;;-145.63;31.88;37374.06;5119529;27;20027;-65
2023/08/16 11:07:30;;;;;;;5.38;2.47;;;;;;;-145.63;31.99;37405.34;5125376;28;20019;-66
2023/08/16 11:10:02;;;;;;;3.55;2.30;;;;;;;-145.63;31.23;37565.63;5125290;28;20026;-65
2023/08/16 11:12:31;;;;;;;3.22;2.45;;;;;;;-145.63;31.90;37528.50;5122553;28;20031;-66
2023/08/16 11:14:57;;;;;;;3.78;2.70;;;;;;;-145.63;31.93;37428.78;5136932;27;20027;-66
2023/08/16 11:17:27;;;;;;;3.28;2.78;;;;;;;-145.63;31.93;37397.53;5115974;28;20091;-66